Time,TemperatureF,DewpointF,PressureIn,WindDirection,WindDirectionDegrees,WindSpeedMPH,WindSpeedGustMPH,Humidity,HourlyPrecipIn,Conditions,Clouds,dailyrainin,SolarRadiationWatts/m^2,SoftwareType,DateUTC
2013-03-09 00:02:00,60.0,57.0,-100.00,SSE,166,14.0,24.0,90,0.00,,,0.04,0.000000,,2013-03-09 06:02:00,
2013-03-09 00:11:00,60.0,57.0,-100.00,SSE,166,14.0,24.0,90,0.00,,,0.04,0.000000,,2013-03-09 06:11:00,
2013-03-09 00:22:00,60.0,57.0,-100.00,SSE,166,14.0,24.0,90,0.00,,,0.04,0.000000,,2013-03-09 06:22:00,
2013-03-09 00:32:00,60.0,57.0,-100.00,SSE,166,14.0,24.0,90,0.00,,,0.04,0.000000,,2013-03-09 06:32:00,
2013-03-09 01:01:00,60.0,58.0,-100.00,SSE,157,13.0,24.0,92,0.00,,,0.04,0.000000,,2013-03-09 07:01:00,
2013-03-09 01:11:00,60.0,58.0,-100.00,SSE,157,13.0,24.0,92,0.00,,,0.04,0.000000,,2013-03-09 07:11:00,
2013-03-09 01:21:00,60.0,58.0,-100.00,SSE,157,13.0,24.0,92,0.00,,,0.04,0.000000,,2013-03-09 07:21:00,
2013-03-09 01:32:00,60.0,58.0,-100.00,SSE,157,13.0,24.0,92,0.00,,,0.04,0.000000,,2013-03-09 07:32:00,
2013-03-09 01:52:00,60.0,58.0,-100.00,SSE,160,16.0,29.0,93,0.00,,,0.04,0.000000,,2013-03-09 07:52:00,
2013-03-09 02:01:00,60.0,58.0,-100.00,SSE,160,16.0,29.0,93,0.00,,,0.04,0.000000,,2013-03-09 08:01:00,
2013-03-09 02:11:00,60.0,58.0,-100.00,SSE,160,16.0,29.0,93,0.00,,,0.04,0.000000,,2013-03-09 08:11:00,
2013-03-09 02:22:00,60.0,58.0,-100.00,SSE,160,16.0,29.0,93,0.00,,,0.04,0.000000,,2013-03-09 08:22:00,
2013-03-09 02:32:00,60.0,58.0,-100.00,SSE,160,16.0,29.0,93,0.00,,,0.04,0.000000,,2013-03-09 08:32:00,
2013-03-09 02:52:00,60.0,59.0,-100.00,SSE,157,15.0,27.0,96,0.00,,,0.04,0.000000,,2013-03-09 08:52:00,
2013-03-09 03:02:00,60.0,59.0,-100.00,SSE,157,15.0,27.0,96,0.00,,,0.04,0.000000,,2013-03-09 09:02:00,
2013-03-09 03:12:00,60.0,59.0,-100.00,SSE,157,15.0,27.0,96,0.00,,,0.04,0.000000,,2013-03-09 09:12:00,
2013-03-09 03:21:00,60.0,59.0,-100.00,SSE,157,15.0,27.0,96,0.00,,,0.04,0.000000,,2013-03-09 09:21:00,
2013-03-09 03:32:00,60.0,59.0,-100.00,SSE,157,15.0,27.0,96,0.00,,,0.04,0.000000,,2013-03-09 09:32:00,
2013-03-09 03:52:00,59.0,58.0,-100.00,SSE,155,14.0,24.0,98,0.00,,,0.04,0.000000,,2013-03-09 09:52:00,
2013-03-09 04:01:00,59.0,58.0,-100.00,SSE,155,14.0,24.0,98,0.00,,,0.04,0.000000,,2013-03-09 10:01:00,
2013-03-09 04:11:00,59.0,58.0,-100.00,SSE,155,14.0,24.0,98,0.00,,,0.04,0.000000,,2013-03-09 10:11:00,
2013-03-09 04:21:00,59.0,58.0,-100.00,SSE,155,14.0,24.0,98,0.00,,,0.04,0.000000,,2013-03-09 10:21:00,
2013-03-09 04:31:00,59.0,58.0,-100.00,SSE,155,14.0,24.0,98,0.00,,,0.04,0.000000,,2013-03-09 10:31:00,
2013-03-09 04:52:00,60.0,60.0,-100.00,SSE,161,14.0,24.0,99,0.00,,,0.04,0.000000,,2013-03-09 10:52:00,
2013-03-09 05:01:00,60.0,60.0,-100.00,SSE,161,14.0,24.0,99,0.00,,,0.04,0.000000,,2013-03-09 11:01:00,
2013-03-09 05:11:00,60.0,60.0,-100.00,SSE,161,14.0,24.0,99,0.00,,,0.04,0.000000,,2013-03-09 11:11:00,
2013-03-09 05:21:00,60.0,60.0,-100.00,SSE,161,14.0,24.0,99,0.00,,,0.04,0.000000,,2013-03-09 11:21:00,
2013-03-09 05:32:00,60.0,60.0,-100.00,SSE,161,14.0,24.0,99,0.00,,,0.04,0.000000,,2013-03-09 11:32:00,
2013-03-09 05:52:00,60.0,60.0,-100.00,SSE,165,15.0,23.0,100,0.00,,,0.04,0.000000,,2013-03-09 11:52:00,
2013-03-09 06:01:00,60.0,60.0,-100.00,SSE,165,15.0,23.0,100,0.00,,,0.04,0.000000,,2013-03-09 12:01:00,
2013-03-09 06:11:00,60.0,60.0,-100.00,SSE,165,15.0,23.0,100,0.00,,,0.04,0.000000,,2013-03-09 12:11:00,
2013-03-09 06:21:00,60.0,60.0,-100.00,SSE,165,15.0,23.0,100,0.00,,,0.04,0.000000,,2013-03-09 12:21:00,
2013-03-09 06:32:00,60.0,60.0,-100.00,SSE,165,15.0,23.0,100,0.00,,,0.04,0.000000,,2013-03-09 12:32:00,
2013-03-09 07:02:00,61.0,61.0,-100.00,South,169,15.0,24.0,100,0.00,,,0.04,0.000000,,2013-03-09 13:02:00,
2013-03-09 07:11:00,61.0,61.0,-100.00,South,169,15.0,24.0,100,0.00,,,0.04,0.000000,,2013-03-09 13:11:00,
2013-03-09 07:21:00,61.0,61.0,-100.00,South,169,15.0,24.0,100,0.00,,,0.04,0.000000,,2013-03-09 13:21:00,
2013-03-09 07:32:00,61.0,61.0,-100.00,South,169,15.0,24.0,100,0.00,,,0.04,0.000000,,2013-03-09 13:32:00,
2013-03-09 07:52:00,61.0,61.0,-100.00,SSE,168,16.0,25.0,100,0.00,,,0.04,4.000000,,2013-03-09 13:52:00,
2013-03-09 08:01:00,61.0,61.0,-100.00,SSE,168,16.0,25.0,100,0.00,,,0.04,4.000000,,2013-03-09 14:01:00,
2013-03-09 08:11:00,61.0,61.0,-100.00,SSE,168,16.0,25.0,100,0.00,,,0.04,4.000000,,2013-03-09 14:11:00,
2013-03-09 08:21:00,61.0,61.0,-100.00,SSE,168,16.0,25.0,100,0.00,,,0.04,4.000000,,2013-03-09 14:21:00,
2013-03-09 08:32:00,61.0,61.0,-100.00,SSE,168,16.0,25.0,100,0.00,,,0.04,4.000000,,2013-03-09 14:32:00,
2013-03-09 09:02:00,63.0,62.0,-100.00,SSE,166,15.0,26.0,97,0.00,,,0.04,34.000000,,2013-03-09 15:02:00,
2013-03-09 09:12:00,63.0,62.0,-100.00,SSE,166,15.0,26.0,97,0.00,,,0.04,34.000000,,2013-03-09 15:12:00,
2013-03-09 09:22:00,63.0,62.0,-100.00,SSE,166,15.0,26.0,97,0.00,,,0.04,34.000000,,2013-03-09 15:22:00,
2013-03-09 09:32:00,63.0,62.0,-100.00,SSE,166,15.0,26.0,97,0.00,,,0.04,34.000000,,2013-03-09 15:32:00,
2013-03-09 09:52:00,64.0,61.0,-100.00,South,173,18.0,28.0,91,0.00,,,0.04,55.000000,,2013-03-09 15:52:00,
2013-03-09 10:01:00,64.0,61.0,-100.00,South,173,18.0,28.0,91,0.00,,,0.04,55.000000,,2013-03-09 16:01:00,
2013-03-09 10:11:00,64.0,61.0,-100.00,South,173,18.0,28.0,91,0.00,,,0.04,55.000000,,2013-03-09 16:11:00,
2013-03-09 10:21:00,64.0,61.0,-100.00,South,173,18.0,28.0,91,0.00,,,0.04,55.000000,,2013-03-09 16:21:00,
2013-03-09 10:32:00,64.0,61.0,-100.00,South,173,18.0,28.0,91,0.00,,,0.04,55.000000,,2013-03-09 16:32:00,
2013-03-09 11:01:00,65.0,63.0,-100.00,South,172,15.0,26.0,92,0.00,,,0.04,76.000000,,2013-03-09 17:01:00,
2013-03-09 11:11:00,65.0,63.0,-100.00,South,172,15.0,26.0,92,0.00,,,0.04,76.000000,,2013-03-09 17:11:00,
2013-03-09 11:22:00,65.0,63.0,-100.00,South,172,15.0,26.0,92,0.00,,,0.04,76.000000,,2013-03-09 17:22:00,
2013-03-09 11:32:00,65.0,63.0,-100.00,South,172,15.0,26.0,92,0.00,,,0.04,76.000000,,2013-03-09 17:32:00,
2013-03-09 11:52:00,65.0,62.0,-100.00,South,175,17.0,32.0,91,0.00,,,0.04,89.000000,,2013-03-09 17:52:00,
2013-03-09 12:02:00,65.0,62.0,-100.00,South,175,17.0,32.0,91,0.00,,,0.04,89.000000,,2013-03-09 18:02:00,
2013-03-09 12:11:00,65.0,62.0,-100.00,South,175,17.0,32.0,91,0.00,,,0.04,89.000000,,2013-03-09 18:11:00,
2013-03-09 12:21:00,65.0,62.0,-100.00,South,175,17.0,32.0,91,0.00,,,0.04,89.000000,,2013-03-09 18:21:00,
2013-03-09 12:32:00,65.0,62.0,-100.00,South,175,17.0,32.0,91,0.00,,,0.04,89.000000,,2013-03-09 18:32:00,
2013-03-09 12:52:00,65.0,62.0,-100.00,South,170,15.0,27.0,91,0.00,,,0.03,69.000000,,2013-03-09 18:52:00,
2013-03-09 13:01:00,65.0,62.0,-100.00,South,170,15.0,27.0,91,0.00,,,0.03,69.000000,,2013-03-09 19:01:00,
2013-03-09 13:11:00,65.0,62.0,-100.00,South,170,15.0,27.0,91,0.00,,,0.03,69.000000,,2013-03-09 19:11:00,
2013-03-09 13:22:00,65.0,62.0,-100.00,South,170,15.0,27.0,91,0.00,,,0.03,69.000000,,2013-03-09 19:22:00,
2013-03-09 13:32:00,65.0,62.0,-100.00,South,170,15.0,27.0,91,0.00,,,0.03,69.000000,,2013-03-09 19:32:00,
2013-03-09 14:01:00,66.0,63.0,-100.00,South,180,14.0,21.0,89,0.00,,,0.03,42.000000,,2013-03-09 20:01:00,
2013-03-09 14:11:00,66.0,63.0,-100.00,South,180,14.0,21.0,89,0.00,,,0.03,42.000000,,2013-03-09 20:11:00,
2013-03-09 14:22:00,66.0,63.0,-100.00,South,180,14.0,21.0,89,0.00,,,0.03,42.000000,,2013-03-09 20:22:00,
2013-03-09 14:32:00,66.0,63.0,-100.00,South,180,14.0,21.0,89,0.00,,,0.03,42.000000,,2013-03-09 20:32:00,
2013-03-09 14:52:00,66.0,65.0,-100.00,SSE,160,11.0,22.0,96,0.00,,,0.02,73.000000,,2013-03-09 20:52:00,
2013-03-09 15:02:00,66.0,65.0,-100.00,SSE,160,11.0,22.0,96,0.00,,,0.02,73.000000,,2013-03-09 21:02:00,
2013-03-09 15:12:00,66.0,65.0,-100.00,SSE,160,11.0,22.0,96,0.00,,,0.02,73.000000,,2013-03-09 21:12:00,
2013-03-09 15:22:00,66.0,65.0,-100.00,SSE,160,11.0,22.0,96,0.00,,,0.02,73.000000,,2013-03-09 21:22:00,
2013-03-09 15:32:00,66.0,65.0,-100.00,SSE,160,11.0,22.0,96,0.00,,,0.02,73.000000,,2013-03-09 21:32:00,
2013-03-09 15:52:00,67.0,64.0,-100.00,South,169,14.0,20.0,89,0.00,,,0.00,57.000000,,2013-03-09 21:52:00,
2013-03-09 16:01:00,67.0,64.0,-100.00,South,169,14.0,20.0,89,0.00,,,0.00,57.000000,,2013-03-09 22:01:00,
2013-03-09 16:11:00,67.0,64.0,-100.00,South,169,14.0,20.0,89,0.00,,,0.00,57.000000,,2013-03-09 22:11:00,
2013-03-09 16:21:00,67.0,64.0,-100.00,South,169,14.0,20.0,89,0.00,,,0.00,57.000000,,2013-03-09 22:21:00,
2013-03-09 16:32:00,67.0,64.0,-100.00,South,169,14.0,20.0,89,0.00,,,0.00,57.000000,,2013-03-09 22:32:00,
2013-03-09 17:01:00,69.0,64.0,-100.00,SSE,152,13.0,21.0,84,0.00,,,0.00,123.000000,,2013-03-09 23:01:00,
2013-03-09 17:11:00,69.0,64.0,-100.00,SSE,152,13.0,21.0,84,0.00,,,0.00,123.000000,,2013-03-09 23:11:00,
2013-03-09 17:21:00,69.0,64.0,-100.00,SSE,152,13.0,21.0,84,0.00,,,0.00,123.000000,,2013-03-09 23:21:00,
2013-03-09 17:32:00,69.0,64.0,-100.00,SSE,152,13.0,21.0,84,0.00,,,0.00,123.000000,,2013-03-09 23:32:00,
2013-03-09 17:52:00,69.0,63.0,-100.00,SSE,157,13.0,23.0,80,0.00,,,0.00,115.000000,,2013-03-09 23:52:00,
2013-03-09 18:01:00,69.0,63.0,-100.00,SSE,157,13.0,23.0,80,0.00,,,0.00,115.000000,,2013-03-10 00:01:00,
2013-03-09 18:11:00,69.0,63.0,-100.00,SSE,157,13.0,23.0,80,0.00,,,0.00,115.000000,,2013-03-10 00:11:00,
2013-03-09 18:22:00,69.0,63.0,-100.00,SSE,157,13.0,23.0,80,0.00,,,0.00,115.000000,,2013-03-10 00:22:00,
2013-03-09 18:32:00,69.0,63.0,-100.00,SSE,157,13.0,23.0,80,0.00,,,0.00,115.000000,,2013-03-10 00:32:00,
2013-03-09 19:01:00,68.0,62.0,-100.00,SSE,158,16.0,27.0,81,0.00,,,0.00,16.000000,,2013-03-10 01:01:00,
2013-03-09 19:11:00,68.0,62.0,-100.00,SSE,158,16.0,27.0,81,0.00,,,0.00,16.000000,,2013-03-10 01:11:00,
2013-03-09 19:21:00,68.0,62.0,-100.00,SSE,158,16.0,27.0,81,0.00,,,0.00,16.000000,,2013-03-10 01:21:00,
2013-03-09 19:31:00,68.0,62.0,-100.00,SSE,158,16.0,27.0,81,0.00,,,0.00,16.000000,,2013-03-10 01:31:00,
2013-03-09 19:52:00,67.0,63.0,-100.00,SSE,155,16.0,29.0,86,0.00,,,-99.99,0.000000,,2013-03-10 01:52:00,
2013-03-09 20:01:00,67.0,63.0,-100.00,SSE,155,16.0,29.0,86,0.00,,,-99.99,0.000000,,2013-03-10 02:01:00,
2013-03-09 20:11:00,67.0,63.0,-100.00,SSE,155,16.0,29.0,86,0.00,,,-99.99,0.000000,,2013-03-10 02:11:00,
2013-03-09 20:22:00,67.0,63.0,-100.00,SSE,155,16.0,29.0,86,0.00,,,-99.99,0.000000,,2013-03-10 02:22:00,
2013-03-09 20:32:00,67.0,63.0,-100.00,SSE,155,16.0,29.0,86,0.00,,,-99.99,0.000000,,2013-03-10 02:32:00,
2013-03-09 20:52:00,66.0,62.0,-100.00,SSE,159,17.0,34.0,87,0.00,,,-99.99,0.000000,,2013-03-10 02:52:00,
2013-03-09 21:02:00,66.0,62.0,-100.00,SSE,159,17.0,34.0,87,0.00,,,-99.99,0.000000,,2013-03-10 03:02:00,
2013-03-09 21:11:00,66.0,62.0,-100.00,SSE,159,17.0,34.0,87,0.00,,,-99.99,0.000000,,2013-03-10 03:11:00,
2013-03-09 21:22:00,66.0,62.0,-100.00,SSE,159,17.0,34.0,87,0.00,,,-99.99,0.000000,,2013-03-10 03:22:00,
2013-03-09 21:32:00,66.0,62.0,-100.00,SSE,159,17.0,34.0,87,0.00,,,-99.99,0.000000,,2013-03-10 03:32:00,
2013-03-09 22:01:00,66.0,62.0,-100.00,SSE,162,19.0,30.0,87,0.00,,,0.00,0.000000,,2013-03-10 04:01:00,
2013-03-09 22:11:00,66.0,62.0,-100.00,SSE,162,19.0,30.0,87,0.00,,,0.00,0.000000,,2013-03-10 04:11:00,
2013-03-09 22:21:00,66.0,62.0,-100.00,SSE,162,19.0,30.0,87,0.00,,,0.00,0.000000,,2013-03-10 04:21:00,
2013-03-09 22:31:00,66.0,62.0,-100.00,SSE,162,19.0,30.0,87,0.00,,,0.00,0.000000,,2013-03-10 04:31:00,
2013-03-09 22:52:00,65.0,62.0,-100.00,SSE,163,15.0,28.0,91,0.00,,,0.00,0.000000,,2013-03-10 04:52:00,
2013-03-09 23:01:00,65.0,62.0,-100.00,SSE,163,15.0,28.0,91,0.00,,,0.00,0.000000,,2013-03-10 05:01:00,
2013-03-09 23:11:00,65.0,62.0,-100.00,SSE,163,15.0,28.0,91,0.00,,,0.00,0.000000,,2013-03-10 05:11:00,
2013-03-09 23:22:00,65.0,62.0,-100.00,SSE,163,15.0,28.0,91,0.00,,,0.00,0.000000,,2013-03-10 05:22:00,
2013-03-09 23:31:00,65.0,62.0,-100.00,SSE,163,15.0,28.0,91,0.00,,,0.00,0.000000,,2013-03-10 05:31:00,
2013-03-09 23:52:00,64.0,63.0,-100.00,West,275,7.0,28.0,97,0.18,,,0.18,0.000000,,2013-03-10 05:52:00,